sensor_id;sensor_type;location;lat;lon;timestamp;P1;durP1;ratioP1;P2;durP2;ratioP2
68577;SDS011;61668;45.388;11.784;2022-08-02T00:00:50;5.60;;;1.20;;
68577;SDS011;61668;45.388;11.784;2022-08-02T00:03:16;6.20;;;1.50;;
68577;SDS011;61668;45.388;11.784;2022-08-02T00:05:41;6.00;;;1.10;;
68577;SDS011;61668;45.388;11.784;2022-08-02T00:08:07;6.50;;;1.40;;
68577;SDS011;61668;45.388;11.784;2022-08-02T00:10:32;6.50;;;1.40;;
68577;SDS011;61668;45.388;11.784;2022-08-02T00:12:58;5.50;;;1.40;;
68577;SDS011;61668;45.388;11.784;2022-08-02T00:15:23;5.40;;;1.10;;
68577;SDS011;61668;45.388;11.784;2022-08-02T00:17:49;4.90;;;0.70;;
68577;SDS011;61668;45.388;11.784;2022-08-02T00:20:15;5.60;;;0.90;;
68577;SDS011;61668;45.388;11.784;2022-08-02T00:22:40;5.50;;;1.30;;
68577;SDS011;61668;45.388;11.784;2022-08-02T00:25:06;6.00;;;1.10;;
68577;SDS011;61668;45.388;11.784;2022-08-02T00:27:32;6.60;;;1.20;;
68577;SDS011;61668;45.388;11.784;2022-08-02T00:29:58;6.20;;;1.20;;
68577;SDS011;61668;45.388;11.784;2022-08-02T00:32:23;6.00;;;1.00;;
68577;SDS011;61668;45.388;11.784;2022-08-02T00:34:49;6.90;;;1.00;;
68577;SDS011;61668;45.388;11.784;2022-08-02T00:37:15;6.00;;;1.00;;
68577;SDS011;61668;45.388;11.784;2022-08-02T00:39:41;5.50;;;0.90;;
68577;SDS011;61668;45.388;11.784;2022-08-02T00:42:07;5.80;;;0.90;;
68577;SDS011;61668;45.388;11.784;2022-08-02T00:44:33;6.90;;;1.00;;
68577;SDS011;61668;45.388;11.784;2022-08-02T00:46:59;6.00;;;1.10;;
68577;SDS011;61668;45.388;11.784;2022-08-02T00:49:25;5.50;;;1.00;;
68577;SDS011;61668;45.388;11.784;2022-08-02T00:51:51;5.70;;;0.70;;
68577;SDS011;61668;45.388;11.784;2022-08-02T00:54:17;6.30;;;1.20;;
68577;SDS011;61668;45.388;11.784;2022-08-02T00:56:42;6.00;;;1.30;;
68577;SDS011;61668;45.388;11.784;2022-08-02T00:59:08;5.20;;;1.20;;
68577;SDS011;61668;45.388;11.784;2022-08-02T01:01:33;5.30;;;1.20;;
68577;SDS011;61668;45.388;11.784;2022-08-02T01:04:08;5.70;;;0.80;;
68577;SDS011;61668;45.388;11.784;2022-08-02T01:06:37;5.60;;;0.80;;
68577;SDS011;61668;45.388;11.784;2022-08-02T01:09:05;5.70;;;0.80;;
68577;SDS011;61668;45.388;11.784;2022-08-02T01:11:32;5.30;;;0.70;;
68577;SDS011;61668;45.388;11.784;2022-08-02T01:14:07;5.00;;;0.80;;
68577;SDS011;61668;45.388;11.784;2022-08-02T01:20:14;5.50;;;1.00;;
68577;SDS011;61668;45.388;11.784;2022-08-02T01:26:33;5.40;;;1.00;;
68577;SDS011;61668;45.388;11.784;2022-08-02T01:29:07;6.30;;;1.20;;
68577;SDS011;61668;45.388;11.784;2022-08-02T01:31:40;4.60;;;0.70;;
68577;SDS011;61668;45.388;11.784;2022-08-02T01:37:17;5.70;;;0.80;;
68577;SDS011;61668;45.388;11.784;2022-08-02T01:39:49;4.50;;;0.60;;
68577;SDS011;61668;45.388;11.784;2022-08-02T01:42:17;4.80;;;0.70;;
68577;SDS011;61668;45.388;11.784;2022-08-02T01:44:44;5.00;;;0.60;;
68577;SDS011;61668;45.388;11.784;2022-08-02T01:47:23;4.90;;;0.50;;
68577;SDS011;61668;45.388;11.784;2022-08-02T01:49:57;5.40;;;0.40;;
68577;SDS011;61668;45.388;11.784;2022-08-02T01:52:26;4.90;;;0.30;;
68577;SDS011;61668;45.388;11.784;2022-08-02T01:55:03;4.30;;;0.50;;
68577;SDS011;61668;45.388;11.784;2022-08-02T01:57:36;3.20;;;0.20;;
68577;SDS011;61668;45.388;11.784;2022-08-02T02:00:06;5.40;;;0.40;;
68577;SDS011;61668;45.388;11.784;2022-08-02T02:02:37;4.30;;;0.40;;
68577;SDS011;61668;45.388;11.784;2022-08-02T02:05:10;4.10;;;0.40;;
68577;SDS011;61668;45.388;11.784;2022-08-02T02:07:39;2.70;;;0.30;;
68577;SDS011;61668;45.388;11.784;2022-08-02T02:10:07;3.80;;;0.30;;
68577;SDS011;61668;45.388;11.784;2022-08-02T02:12:35;4.10;;;0.40;;
68577;SDS011;61668;45.388;11.784;2022-08-02T02:15:04;2.90;;;0.20;;
68577;SDS011;61668;45.388;11.784;2022-08-02T02:17:32;4.70;;;0.20;;
68577;SDS011;61668;45.388;11.784;2022-08-02T02:20:00;2.90;;;0.30;;
68577;SDS011;61668;45.388;11.784;2022-08-02T02:22:28;3.00;;;0.30;;
68577;SDS011;61668;45.388;11.784;2022-08-02T02:24:53;4.70;;;0.30;;
68577;SDS011;61668;45.388;11.784;2022-08-02T02:27:20;3.50;;;0.20;;
68577;SDS011;61668;45.388;11.784;2022-08-02T02:29:50;4.00;;;0.30;;
68577;SDS011;61668;45.388;11.784;2022-08-02T02:32:16;5.20;;;0.30;;
68577;SDS011;61668;45.388;11.784;2022-08-02T02:34:44;3.00;;;0.30;;
68577;SDS011;61668;45.388;11.784;2022-08-02T02:37:15;4.10;;;0.40;;
68577;SDS011;61668;45.388;11.784;2022-08-02T02:39:47;2.90;;;0.30;;
68577;SDS011;61668;45.388;11.784;2022-08-02T02:42:16;2.80;;;0.20;;
68577;SDS011;61668;45.388;11.784;2022-08-02T02:44:45;3.90;;;0.20;;
68577;SDS011;61668;45.388;11.784;2022-08-02T02:47:13;3.00;;;0.20;;
68577;SDS011;61668;45.388;11.784;2022-08-02T02:49:42;3.00;;;0.30;;
68577;SDS011;61668;45.388;11.784;2022-08-02T02:52:08;4.40;;;0.30;;
68577;SDS011;61668;45.388;11.784;2022-08-02T02:54:35;3.70;;;0.20;;
68577;SDS011;61668;45.388;11.784;2022-08-02T02:57:03;3.50;;;0.30;;
68577;SDS011;61668;45.388;11.784;2022-08-02T02:59:31;3.00;;;0.30;;
68577;SDS011;61668;45.388;11.784;2022-08-02T03:01:59;3.90;;;0.20;;
68577;SDS011;61668;45.388;11.784;2022-08-02T03:04:27;3.70;;;0.20;;
68577;SDS011;61668;45.388;11.784;2022-08-02T03:06:53;3.20;;;0.20;;
68577;SDS011;61668;45.388;11.784;2022-08-02T03:09:19;2.80;;;0.30;;
68577;SDS011;61668;45.388;11.784;2022-08-02T03:11:46;4.20;;;0.30;;
68577;SDS011;61668;45.388;11.784;2022-08-02T03:14:13;2.80;;;0.30;;
68577;SDS011;61668;45.388;11.784;2022-08-02T03:16:47;3.70;;;0.40;;
68577;SDS011;61668;45.388;11.784;2022-08-02T03:19:14;3.10;;;0.30;;
68577;SDS011;61668;45.388;11.784;2022-08-02T03:21:44;3.60;;;0.40;;
68577;SDS011;61668;45.388;11.784;2022-08-02T03:24:11;3.10;;;0.20;;
68577;SDS011;61668;45.388;11.784;2022-08-02T03:26:38;3.10;;;0.30;;
68577;SDS011;61668;45.388;11.784;2022-08-02T03:29:04;3.30;;;0.30;;
68577;SDS011;61668;45.388;11.784;2022-08-02T03:31:30;4.70;;;0.30;;
68577;SDS011;61668;45.388;11.784;2022-08-02T03:33:57;3.30;;;0.30;;
68577;SDS011;61668;45.388;11.784;2022-08-02T03:36:26;3.90;;;0.20;;
68577;SDS011;61668;45.388;11.784;2022-08-02T03:38:54;5.00;;;0.40;;
68577;SDS011;61668;45.388;11.784;2022-08-02T03:41:21;3.00;;;0.30;;
68577;SDS011;61668;45.388;11.784;2022-08-02T03:43:48;3.10;;;0.20;;
68577;SDS011;61668;45.388;11.784;2022-08-02T03:46:17;3.60;;;0.30;;
68577;SDS011;61668;45.388;11.784;2022-08-02T03:48:46;3.40;;;0.30;;
68577;SDS011;61668;45.388;11.784;2022-08-02T03:51:13;3.00;;;0.30;;
68577;SDS011;61668;45.388;11.784;2022-08-02T03:53:39;5.60;;;0.40;;
68577;SDS011;61668;45.388;11.784;2022-08-02T03:56:05;4.50;;;0.40;;
68577;SDS011;61668;45.388;11.784;2022-08-02T03:58:32;4.70;;;0.60;;
68577;SDS011;61668;45.388;11.784;2022-08-02T04:00:58;5.00;;;0.30;;
68577;SDS011;61668;45.388;11.784;2022-08-02T04:03:24;4.70;;;0.40;;
68577;SDS011;61668;45.388;11.784;2022-08-02T04:05:50;3.70;;;0.50;;
68577;SDS011;61668;45.388;11.784;2022-08-02T04:08:16;3.90;;;0.40;;
68577;SDS011;61668;45.388;11.784;2022-08-02T04:10:42;3.90;;;0.40;;
68577;SDS011;61668;45.388;11.784;2022-08-02T04:13:37;4.00;;;0.20;;
68577;SDS011;61668;45.388;11.784;2022-08-02T04:18:42;4.40;;;0.40;;
68577;SDS011;61668;45.388;11.784;2022-08-02T04:21:14;4.20;;;0.30;;
68577;SDS011;61668;45.388;11.784;2022-08-02T04:23:42;4.40;;;0.40;;
68577;SDS011;61668;45.388;11.784;2022-08-02T04:26:10;3.30;;;0.40;;
68577;SDS011;61668;45.388;11.784;2022-08-02T04:28:36;4.80;;;0.40;;
68577;SDS011;61668;45.388;11.784;2022-08-02T04:31:02;4.00;;;0.30;;
68577;SDS011;61668;45.388;11.784;2022-08-02T04:33:28;3.90;;;0.40;;
68577;SDS011;61668;45.388;11.784;2022-08-02T04:35:54;2.70;;;0.20;;
68577;SDS011;61668;45.388;11.784;2022-08-02T04:38:20;3.60;;;0.30;;
68577;SDS011;61668;45.388;11.784;2022-08-02T04:40:54;4.00;;;0.20;;
68577;SDS011;61668;45.388;11.784;2022-08-02T04:43:21;3.80;;;0.20;;
68577;SDS011;61668;45.388;11.784;2022-08-02T04:45:51;5.80;;;0.30;;
68577;SDS011;61668;45.388;11.784;2022-08-02T04:48:17;4.60;;;0.40;;
68577;SDS011;61668;45.388;11.784;2022-08-02T04:50:43;4.20;;;0.30;;
68577;SDS011;61668;45.388;11.784;2022-08-02T04:53:09;4.80;;;0.50;;
68577;SDS011;61668;45.388;11.784;2022-08-02T04:55:34;3.40;;;0.30;;
68577;SDS011;61668;45.388;11.784;2022-08-02T04:58:00;4.10;;;0.40;;
68577;SDS011;61668;45.388;11.784;2022-08-02T05:00:27;4.20;;;0.30;;
68577;SDS011;61668;45.388;11.784;2022-08-02T05:02:57;4.80;;;0.40;;
68577;SDS011;61668;45.388;11.784;2022-08-02T05:05:24;3.40;;;0.40;;
68577;SDS011;61668;45.388;11.784;2022-08-02T05:07:50;3.90;;;0.70;;
68577;SDS011;61668;45.388;11.784;2022-08-02T05:10:15;3.50;;;0.30;;
68577;SDS011;61668;45.388;11.784;2022-08-02T05:12:41;4.20;;;0.50;;
68577;SDS011;61668;45.388;11.784;2022-08-02T05:15:08;4.60;;;0.30;;
68577;SDS011;61668;45.388;11.784;2022-08-02T05:17:35;2.70;;;0.20;;
68577;SDS011;61668;45.388;11.784;2022-08-02T05:20:01;3.30;;;0.20;;
68577;SDS011;61668;45.388;11.784;2022-08-02T05:22:26;3.60;;;0.30;;
68577;SDS011;61668;45.388;11.784;2022-08-02T05:24:53;4.00;;;0.30;;
68577;SDS011;61668;45.388;11.784;2022-08-02T05:27:19;3.90;;;0.40;;
68577;SDS011;61668;45.388;11.784;2022-08-02T05:29:44;3.30;;;0.40;;
68577;SDS011;61668;45.388;11.784;2022-08-02T05:32:10;3.80;;;0.30;;
68577;SDS011;61668;45.388;11.784;2022-08-02T05:34:35;5.20;;;0.40;;
68577;SDS011;61668;45.388;11.784;2022-08-02T05:37:01;3.70;;;0.40;;
68577;SDS011;61668;45.388;11.784;2022-08-02T05:39:26;4.60;;;0.30;;
68577;SDS011;61668;45.388;11.784;2022-08-02T05:41:52;4.50;;;0.50;;
68577;SDS011;61668;45.388;11.784;2022-08-02T05:44:17;5.30;;;0.50;;
68577;SDS011;61668;45.388;11.784;2022-08-02T05:46:43;4.90;;;0.50;;
68577;SDS011;61668;45.388;11.784;2022-08-02T05:49:08;4.60;;;0.60;;
68577;SDS011;61668;45.388;11.784;2022-08-02T05:51:39;4.10;;;0.30;;
68577;SDS011;61668;45.388;11.784;2022-08-02T05:54:35;4.10;;;0.40;;
68577;SDS011;61668;45.388;11.784;2022-08-02T06:00:16;5.50;;;0.50;;
68577;SDS011;61668;45.388;11.784;2022-08-02T06:02:43;5.00;;;0.50;;
68577;SDS011;61668;45.388;11.784;2022-08-02T06:05:19;4.90;;;0.50;;
68577;SDS011;61668;45.388;11.784;2022-08-02T06:07:47;5.50;;;0.60;;
68577;SDS011;61668;45.388;11.784;2022-08-02T06:10:16;5.40;;;0.60;;
68577;SDS011;61668;45.388;11.784;2022-08-02T06:15:17;7.10;;;0.80;;
68577;SDS011;61668;45.388;11.784;2022-08-02T06:17:43;4.70;;;0.40;;
68577;SDS011;61668;45.388;11.784;2022-08-02T06:20:12;6.70;;;0.40;;
68577;SDS011;61668;45.388;11.784;2022-08-02T06:22:41;5.80;;;0.60;;
68577;SDS011;61668;45.388;11.784;2022-08-02T06:25:11;4.90;;;0.50;;
68577;SDS011;61668;45.388;11.784;2022-08-02T06:27:38;6.00;;;0.80;;
68577;SDS011;61668;45.388;11.784;2022-08-02T06:30:09;5.20;;;0.50;;
68577;SDS011;61668;45.388;11.784;2022-08-02T06:32:36;4.70;;;0.50;;
68577;SDS011;61668;45.388;11.784;2022-08-02T06:35:03;6.50;;;0.70;;
68577;SDS011;61668;45.388;11.784;2022-08-02T06:37:42;5.50;;;0.60;;
68577;SDS011;61668;45.388;11.784;2022-08-02T06:40:51;5.50;;;0.50;;
68577;SDS011;61668;45.388;11.784;2022-08-02T06:43:11;4.70;;;0.50;;
68577;SDS011;61668;45.388;11.784;2022-08-02T06:45:40;5.20;;;0.40;;
68577;SDS011;61668;45.388;11.784;2022-08-02T06:48:07;4.40;;;0.60;;
68577;SDS011;61668;45.388;11.784;2022-08-02T06:50:34;5.30;;;0.40;;
68577;SDS011;61668;45.388;11.784;2022-08-02T06:53:07;7.00;;;0.70;;
68577;SDS011;61668;45.388;11.784;2022-08-02T06:55:33;5.10;;;0.40;;
68577;SDS011;61668;45.388;11.784;2022-08-02T06:57:59;6.10;;;0.60;;
68577;SDS011;61668;45.388;11.784;2022-08-02T07:00:26;5.30;;;0.50;;
68577;SDS011;61668;45.388;11.784;2022-08-02T07:02:52;5.30;;;0.50;;
68577;SDS011;61668;45.388;11.784;2022-08-02T07:05:17;4.00;;;0.60;;
68577;SDS011;61668;45.388;11.784;2022-08-02T07:07:45;4.90;;;0.60;;
68577;SDS011;61668;45.388;11.784;2022-08-02T07:10:12;5.90;;;0.60;;
68577;SDS011;61668;45.388;11.784;2022-08-02T07:12:40;5.80;;;0.50;;
68577;SDS011;61668;45.388;11.784;2022-08-02T07:15:08;6.50;;;0.90;;
68577;SDS011;61668;45.388;11.784;2022-08-02T07:17:35;6.20;;;0.50;;
68577;SDS011;61668;45.388;11.784;2022-08-02T07:20:01;7.30;;;0.80;;
68577;SDS011;61668;45.388;11.784;2022-08-02T07:22:28;5.40;;;0.60;;
68577;SDS011;61668;45.388;11.784;2022-08-02T07:24:58;4.80;;;0.40;;
68577;SDS011;61668;45.388;11.784;2022-08-02T07:27:25;5.00;;;0.40;;
68577;SDS011;61668;45.388;11.784;2022-08-02T07:29:51;6.10;;;0.70;;
68577;SDS011;61668;45.388;11.784;2022-08-02T07:32:21;5.60;;;1.10;;
68577;SDS011;61668;45.388;11.784;2022-08-02T07:34:49;8.40;;;1.30;;
68577;SDS011;61668;45.388;11.784;2022-08-02T07:37:17;5.60;;;0.70;;
68577;SDS011;61668;45.388;11.784;2022-08-02T07:39:43;6.30;;;0.80;;
68577;SDS011;61668;45.388;11.784;2022-08-02T07:42:11;8.30;;;1.20;;
68577;SDS011;61668;45.388;11.784;2022-08-02T07:44:37;19.90;;;2.00;;
68577;SDS011;61668;45.388;11.784;2022-08-02T07:47:04;6.40;;;1.00;;
68577;SDS011;61668;45.388;11.784;2022-08-02T07:49:30;5.30;;;0.70;;
68577;SDS011;61668;45.388;11.784;2022-08-02T07:51:57;5.90;;;0.90;;
68577;SDS011;61668;45.388;11.784;2022-08-02T07:54:23;6.50;;;1.20;;
68577;SDS011;61668;45.388;11.784;2022-08-02T07:56:50;6.10;;;0.60;;
68577;SDS011;61668;45.388;11.784;2022-08-02T07:59:19;7.00;;;0.70;;
68577;SDS011;61668;45.388;11.784;2022-08-02T08:01:46;7.40;;;1.20;;
68577;SDS011;61668;45.388;11.784;2022-08-02T08:04:17;6.20;;;0.90;;
68577;SDS011;61668;45.388;11.784;2022-08-02T08:06:44;6.70;;;1.20;;
68577;SDS011;61668;45.388;11.784;2022-08-02T08:09:17;6.00;;;1.20;;
68577;SDS011;61668;45.388;11.784;2022-08-02T08:11:43;5.80;;;1.00;;
68577;SDS011;61668;45.388;11.784;2022-08-02T08:14:09;5.40;;;1.30;;
68577;SDS011;61668;45.388;11.784;2022-08-02T08:16:34;6.30;;;1.10;;
68577;SDS011;61668;45.388;11.784;2022-08-02T08:19:02;6.70;;;1.00;;
68577;SDS011;61668;45.388;11.784;2022-08-02T08:21:28;6.30;;;1.00;;
68577;SDS011;61668;45.388;11.784;2022-08-02T08:23:55;5.80;;;1.00;;
68577;SDS011;61668;45.388;11.784;2022-08-02T08:26:21;6.60;;;1.00;;
68577;SDS011;61668;45.388;11.784;2022-08-02T08:28:47;7.90;;;1.00;;
68577;SDS011;61668;45.388;11.784;2022-08-02T08:31:15;6.00;;;1.30;;
68577;SDS011;61668;45.388;11.784;2022-08-02T08:33:44;5.80;;;1.30;;
68577;SDS011;61668;45.388;11.784;2022-08-02T08:36:10;5.60;;;1.20;;
68577;SDS011;61668;45.388;11.784;2022-08-02T08:38:35;7.00;;;1.70;;
68577;SDS011;61668;45.388;11.784;2022-08-02T08:41:01;6.60;;;1.30;;
68577;SDS011;61668;45.388;11.784;2022-08-02T08:43:30;6.40;;;1.60;;
68577;SDS011;61668;45.388;11.784;2022-08-02T08:45:57;5.40;;;1.40;;
68577;SDS011;61668;45.388;11.784;2022-08-02T08:48:24;6.70;;;1.20;;
68577;SDS011;61668;45.388;11.784;2022-08-02T08:51:12;6.20;;;1.60;;
68577;SDS011;61668;45.388;11.784;2022-08-02T08:53:42;7.80;;;1.80;;
68577;SDS011;61668;45.388;11.784;2022-08-02T08:56:11;6.80;;;1.50;;
68577;SDS011;61668;45.388;11.784;2022-08-02T08:58:39;6.70;;;1.20;;
68577;SDS011;61668;45.388;11.784;2022-08-02T09:01:05;5.70;;;1.00;;
68577;SDS011;61668;45.388;11.784;2022-08-02T09:03:31;7.80;;;1.30;;
68577;SDS011;61668;45.388;11.784;2022-08-02T09:08:24;5.70;;;1.10;;
68577;SDS011;61668;45.388;11.784;2022-08-02T09:10:49;5.90;;;1.10;;
68577;SDS011;61668;45.388;11.784;2022-08-02T09:13:23;6.00;;;1.20;;
68577;SDS011;61668;45.388;11.784;2022-08-02T09:16:02;5.30;;;0.70;;
68577;SDS011;61668;45.388;11.784;2022-08-02T09:18:33;6.10;;;1.10;;
68577;SDS011;61668;45.388;11.784;2022-08-02T09:21:01;5.80;;;1.00;;
68577;SDS011;61668;45.388;11.784;2022-08-02T09:23:35;6.70;;;1.20;;
68577;SDS011;61668;45.388;11.784;2022-08-02T09:26:06;6.00;;;0.90;;
68577;SDS011;61668;45.388;11.784;2022-08-02T09:28:36;4.70;;;0.70;;
68577;SDS011;61668;45.388;11.784;2022-08-02T09:31:12;5.90;;;1.10;;
68577;SDS011;61668;45.388;11.784;2022-08-02T09:33:41;5.80;;;0.80;;
68577;SDS011;61668;45.388;11.784;2022-08-02T09:36:10;5.10;;;0.80;;
68577;SDS011;61668;45.388;11.784;2022-08-02T09:38:38;5.30;;;1.20;;
68577;SDS011;61668;45.388;11.784;2022-08-02T09:41:06;5.70;;;0.60;;
68577;SDS011;61668;45.388;11.784;2022-08-02T09:43:44;5.60;;;0.80;;
68577;SDS011;61668;45.388;11.784;2022-08-02T09:46:11;5.20;;;0.90;;
68577;SDS011;61668;45.388;11.784;2022-08-02T09:48:50;6.20;;;1.20;;
68577;SDS011;61668;45.388;11.784;2022-08-02T09:51:27;4.90;;;0.60;;
68577;SDS011;61668;45.388;11.784;2022-08-02T09:53:55;5.10;;;0.50;;
68577;SDS011;61668;45.388;11.784;2022-08-02T09:56:24;6.10;;;1.00;;
68577;SDS011;61668;45.388;11.784;2022-08-02T09:58:52;5.70;;;0.90;;
68577;SDS011;61668;45.388;11.784;2022-08-02T10:01:39;5.10;;;0.70;;
68577;SDS011;61668;45.388;11.784;2022-08-02T10:04:09;4.50;;;0.60;;
68577;SDS011;61668;45.388;11.784;2022-08-02T10:06:38;6.10;;;1.00;;
68577;SDS011;61668;45.388;11.784;2022-08-02T10:09:05;6.10;;;0.90;;
68577;SDS011;61668;45.388;11.784;2022-08-02T10:11:33;5.50;;;0.70;;
68577;SDS011;61668;45.388;11.784;2022-08-02T10:14:05;6.00;;;0.80;;
68577;SDS011;61668;45.388;11.784;2022-08-02T10:16:33;6.00;;;0.80;;
68577;SDS011;61668;45.388;11.784;2022-08-02T10:19:00;6.40;;;0.80;;
68577;SDS011;61668;45.388;11.784;2022-08-02T10:22:04;5.10;;;0.90;;
68577;SDS011;61668;45.388;11.784;2022-08-02T10:24:36;5.50;;;1.30;;
68577;SDS011;61668;45.388;11.784;2022-08-02T10:27:06;7.60;;;1.30;;
68577;SDS011;61668;45.388;11.784;2022-08-02T10:29:39;6.70;;;1.40;;
68577;SDS011;61668;45.388;11.784;2022-08-02T10:32:11;6.20;;;0.80;;
68577;SDS011;61668;45.388;11.784;2022-08-02T10:37:05;6.30;;;1.00;;
68577;SDS011;61668;45.388;11.784;2022-08-02T10:39:43;5.00;;;0.70;;
68577;SDS011;61668;45.388;11.784;2022-08-02T10:42:10;6.40;;;0.70;;
68577;SDS011;61668;45.388;11.784;2022-08-02T10:44:37;7.40;;;0.80;;
68577;SDS011;61668;45.388;11.784;2022-08-02T10:47:23;6.70;;;2.10;;
68577;SDS011;61668;45.388;11.784;2022-08-02T10:49:58;5.80;;;1.40;;
68577;SDS011;61668;45.388;11.784;2022-08-02T10:52:24;6.40;;;1.10;;
68577;SDS011;61668;45.388;11.784;2022-08-02T10:54:56;6.40;;;1.50;;
68577;SDS011;61668;45.388;11.784;2022-08-02T10:57:31;5.10;;;1.00;;
68577;SDS011;61668;45.388;11.784;2022-08-02T11:00:13;6.50;;;1.60;;
68577;SDS011;61668;45.388;11.784;2022-08-02T11:02:51;5.60;;;1.30;;
68577;SDS011;61668;45.388;11.784;2022-08-02T11:05:29;5.80;;;1.40;;
68577;SDS011;61668;45.388;11.784;2022-08-02T11:07:56;5.00;;;0.90;;
68577;SDS011;61668;45.388;11.784;2022-08-02T11:10:27;4.70;;;0.90;;
68577;SDS011;61668;45.388;11.784;2022-08-02T11:13:06;5.60;;;1.10;;
68577;SDS011;61668;45.388;11.784;2022-08-02T11:15:55;6.20;;;1.30;;
68577;SDS011;61668;45.388;11.784;2022-08-02T11:18:23;5.90;;;1.00;;
68577;SDS011;61668;45.388;11.784;2022-08-02T11:21:37;5.50;;;1.00;;
68577;SDS011;61668;45.388;11.784;2022-08-02T11:24:23;5.80;;;0.80;;
68577;SDS011;61668;45.388;11.784;2022-08-02T11:26:53;6.00;;;0.90;;
68577;SDS011;61668;45.388;11.784;2022-08-02T11:29:20;5.30;;;1.10;;
68577;SDS011;61668;45.388;11.784;2022-08-02T11:31:46;6.10;;;0.90;;
68577;SDS011;61668;45.388;11.784;2022-08-02T11:34:12;4.80;;;0.80;;
68577;SDS011;61668;45.388;11.784;2022-08-02T11:36:45;4.70;;;0.60;;
68577;SDS011;61668;45.388;11.784;2022-08-02T11:39:18;4.40;;;0.60;;
68577;SDS011;61668;45.388;11.784;2022-08-02T11:41:52;5.10;;;0.80;;
68577;SDS011;61668;45.388;11.784;2022-08-02T11:44:22;4.90;;;0.70;;
68577;SDS011;61668;45.388;11.784;2022-08-02T11:46:59;4.90;;;0.60;;
68577;SDS011;61668;45.388;11.784;2022-08-02T11:49:26;4.60;;;0.50;;
68577;SDS011;61668;45.388;11.784;2022-08-02T11:54:30;4.90;;;0.60;;
68577;SDS011;61668;45.388;11.784;2022-08-02T11:57:18;4.30;;;0.70;;
68577;SDS011;61668;45.388;11.784;2022-08-02T11:59:49;4.20;;;0.70;;
68577;SDS011;61668;45.388;11.784;2022-08-02T12:02:17;4.90;;;0.80;;
68577;SDS011;61668;45.388;11.784;2022-08-02T12:04:55;4.70;;;0.60;;
68577;SDS011;61668;45.388;11.784;2022-08-02T12:07:37;5.20;;;0.90;;
68577;SDS011;61668;45.388;11.784;2022-08-02T12:10:09;6.10;;;1.30;;
68577;SDS011;61668;45.388;11.784;2022-08-02T12:12:54;4.60;;;0.40;;
68577;SDS011;61668;45.388;11.784;2022-08-02T12:15:47;4.80;;;1.00;;
68577;SDS011;61668;45.388;11.784;2022-08-02T12:21:22;5.20;;;0.90;;
68577;SDS011;61668;45.388;11.784;2022-08-02T12:23:52;5.20;;;1.00;;
68577;SDS011;61668;45.388;11.784;2022-08-02T12:26:18;4.80;;;0.90;;
68577;SDS011;61668;45.388;11.784;2022-08-02T12:28:43;5.50;;;0.50;;
68577;SDS011;61668;45.388;11.784;2022-08-02T12:31:11;5.70;;;0.80;;
68577;SDS011;61668;45.388;11.784;2022-08-02T12:33:50;6.20;;;0.90;;
68577;SDS011;61668;45.388;11.784;2022-08-02T12:36:22;4.20;;;0.80;;
68577;SDS011;61668;45.388;11.784;2022-08-02T12:38:52;4.30;;;0.60;;
68577;SDS011;61668;45.388;11.784;2022-08-02T12:41:19;4.70;;;1.00;;
68577;SDS011;61668;45.388;11.784;2022-08-02T12:43:44;5.70;;;1.20;;
68577;SDS011;61668;45.388;11.784;2022-08-02T12:46:18;6.10;;;1.00;;
68577;SDS011;61668;45.388;11.784;2022-08-02T12:48:45;4.90;;;0.80;;
68577;SDS011;61668;45.388;11.784;2022-08-02T12:51:29;5.10;;;0.80;;
68577;SDS011;61668;45.388;11.784;2022-08-02T12:56:42;4.70;;;0.70;;
68577;SDS011;61668;45.388;11.784;2022-08-02T12:59:08;4.70;;;1.00;;
68577;SDS011;61668;45.388;11.784;2022-08-02T13:01:34;4.00;;;0.60;;
68577;SDS011;61668;45.388;11.784;2022-08-02T13:04:01;4.20;;;0.60;;
68577;SDS011;61668;45.388;11.784;2022-08-02T13:06:27;4.40;;;0.90;;
68577;SDS011;61668;45.388;11.784;2022-08-02T13:08:53;4.70;;;0.60;;
68577;SDS011;61668;45.388;11.784;2022-08-02T13:11:20;4.50;;;1.00;;
68577;SDS011;61668;45.388;11.784;2022-08-02T13:13:47;4.80;;;0.80;;
68577;SDS011;61668;45.388;11.784;2022-08-02T13:16:13;5.00;;;0.80;;
68577;SDS011;61668;45.388;11.784;2022-08-02T13:18:39;4.40;;;0.70;;
68577;SDS011;61668;45.388;11.784;2022-08-02T13:21:05;4.50;;;0.90;;
68577;SDS011;61668;45.388;11.784;2022-08-02T13:23:33;3.60;;;0.60;;
68577;SDS011;61668;45.388;11.784;2022-08-02T13:26:00;3.90;;;0.70;;
68577;SDS011;61668;45.388;11.784;2022-08-02T13:28:26;4.20;;;0.80;;
68577;SDS011;61668;45.388;11.784;2022-08-02T13:30:52;5.00;;;1.30;;
68577;SDS011;61668;45.388;11.784;2022-08-02T13:33:18;3.90;;;0.90;;
68577;SDS011;61668;45.388;11.784;2022-08-02T13:35:44;5.00;;;0.80;;
68577;SDS011;61668;45.388;11.784;2022-08-02T13:38:10;4.70;;;0.70;;
68577;SDS011;61668;45.388;11.784;2022-08-02T13:40:36;4.10;;;0.90;;
68577;SDS011;61668;45.388;11.784;2022-08-02T13:43:38;4.60;;;0.80;;
68577;SDS011;61668;45.388;11.784;2022-08-02T13:46:04;5.00;;;1.10;;
68577;SDS011;61668;45.388;11.784;2022-08-02T13:48:31;4.50;;;0.80;;
68577;SDS011;61668;45.388;11.784;2022-08-02T13:50:57;4.40;;;0.70;;
68577;SDS011;61668;45.388;11.784;2022-08-02T13:53:23;4.40;;;0.60;;
68577;SDS011;61668;45.388;11.784;2022-08-02T13:55:49;4.20;;;0.70;;
68577;SDS011;61668;45.388;11.784;2022-08-02T13:58:14;4.60;;;0.90;;
68577;SDS011;61668;45.388;11.784;2022-08-02T14:00:40;5.00;;;0.80;;
68577;SDS011;61668;45.388;11.784;2022-08-02T14:03:07;3.50;;;0.40;;
68577;SDS011;61668;45.388;11.784;2022-08-02T14:05:37;4.40;;;0.80;;
68577;SDS011;61668;45.388;11.784;2022-08-02T14:08:03;4.70;;;0.90;;
68577;SDS011;61668;45.388;11.784;2022-08-02T14:10:29;4.00;;;0.70;;
68577;SDS011;61668;45.388;11.784;2022-08-02T14:12:54;4.70;;;0.70;;
68577;SDS011;61668;45.388;11.784;2022-08-02T14:15:20;4.20;;;0.90;;
68577;SDS011;61668;45.388;11.784;2022-08-02T14:17:46;4.90;;;0.60;;
68577;SDS011;61668;45.388;11.784;2022-08-02T14:20:12;3.90;;;0.70;;
68577;SDS011;61668;45.388;11.784;2022-08-02T14:22:38;4.80;;;0.80;;
68577;SDS011;61668;45.388;11.784;2022-08-02T14:25:04;4.90;;;1.10;;
68577;SDS011;61668;45.388;11.784;2022-08-02T14:27:30;5.20;;;0.70;;
68577;SDS011;61668;45.388;11.784;2022-08-02T14:29:56;4.40;;;1.10;;
68577;SDS011;61668;45.388;11.784;2022-08-02T14:32:22;4.50;;;0.70;;
68577;SDS011;61668;45.388;11.784;2022-08-02T14:34:48;4.30;;;1.00;;
68577;SDS011;61668;45.388;11.784;2022-08-02T14:37:14;5.50;;;0.90;;
68577;SDS011;61668;45.388;11.784;2022-08-02T14:39:39;4.20;;;0.50;;
68577;SDS011;61668;45.388;11.784;2022-08-02T14:42:05;4.80;;;0.90;;
68577;SDS011;61668;45.388;11.784;2022-08-02T14:44:32;4.40;;;0.70;;
68577;SDS011;61668;45.388;11.784;2022-08-02T14:46:58;6.10;;;0.90;;
68577;SDS011;61668;45.388;11.784;2022-08-02T14:49:24;5.40;;;1.30;;
68577;SDS011;61668;45.388;11.784;2022-08-02T14:51:53;5.10;;;0.90;;
68577;SDS011;61668;45.388;11.784;2022-08-02T14:54:19;4.70;;;0.90;;
68577;SDS011;61668;45.388;11.784;2022-08-02T14:56:45;4.70;;;0.90;;
68577;SDS011;61668;45.388;11.784;2022-08-02T14:59:11;4.50;;;1.00;;
68577;SDS011;61668;45.388;11.784;2022-08-02T15:01:36;5.00;;;0.70;;
68577;SDS011;61668;45.388;11.784;2022-08-02T15:04:02;4.70;;;0.70;;
68577;SDS011;61668;45.388;11.784;2022-08-02T15:06:28;4.80;;;0.80;;
68577;SDS011;61668;45.388;11.784;2022-08-02T15:08:57;5.40;;;0.80;;
68577;SDS011;61668;45.388;11.784;2022-08-02T15:11:24;5.20;;;1.20;;
68577;SDS011;61668;45.388;11.784;2022-08-02T15:13:50;4.60;;;1.00;;
68577;SDS011;61668;45.388;11.784;2022-08-02T15:16:15;4.20;;;0.60;;